createdAt,value
2023-04-01T00:01:17.125Z,74.70
2023-04-01T00:03:45.599Z,75.25
2023-04-01T00:06:18.319Z,75.17
2023-04-01T00:08:45.671Z,74.46
2023-04-01T00:11:12.832Z,74.13
2023-04-01T00:13:39.468Z,74.31
2023-04-01T00:16:19.885Z,75.24
2023-04-01T00:18:48.835Z,74.68
2023-04-01T00:21:16.707Z,74.91
2023-04-01T00:23:43.485Z,74.54
2023-04-01T00:26:11.174Z,74.04
2023-04-01T00:28:38.035Z,74.06
2023-04-01T00:31:10.419Z,74.45
2023-04-01T00:33:37.729Z,74.93
2023-04-01T00:36:09.447Z,74.37
2023-04-01T00:38:37.150Z,74.73
2023-04-01T00:41:06.575Z,75.31
2023-04-01T00:43:33.962Z,74.54
2023-04-01T00:46:00.927Z,74.66
2023-04-01T00:48:33.287Z,75.05
2023-04-01T00:51:07.492Z,75.36
2023-04-01T00:53:40.844Z,75.25
2023-04-01T00:56:13.429Z,73.79
2023-04-01T00:58:44.609Z,74.48
2023-04-01T01:01:11.389Z,74.06
2023-04-01T01:03:37.843Z,74.51
2023-04-01T01:06:12.207Z,75.67
2023-04-01T01:09:09.481Z,76.32
2023-04-01T01:12:28.198Z,74.97
2023-04-01T01:15:05.795Z,75.27
2023-04-01T01:17:44.386Z,75.62
2023-04-01T01:20:26.125Z,75.95
2023-04-01T01:23:02.677Z,75.91
2023-04-01T01:25:53.422Z,75.98
2023-04-01T01:28:42.160Z,76.10
2023-04-01T01:31:22.292Z,75.05
2023-04-01T01:33:53.406Z,75.70
2023-04-01T01:36:22.008Z,75.73
2023-04-01T01:38:51.851Z,75.31
2023-04-01T01:41:21.002Z,74.32
2023-04-01T01:43:51.616Z,75.07
2023-04-01T01:46:23.182Z,75.72
2023-04-01T01:48:51.927Z,75.54
2023-04-01T01:51:23.618Z,75.04
2023-04-01T01:53:50.576Z,75.37
2023-04-01T01:56:19.914Z,76.52
2023-04-01T01:58:52.961Z,76.11
2023-04-01T02:01:26.591Z,75.32
2023-04-01T02:03:54.051Z,75.36
2023-04-01T02:06:24.131Z,75.09
2023-04-01T02:09:02.073Z,75.15
2023-04-01T02:11:36.151Z,74.43
2023-04-01T02:14:23.333Z,75.54
2023-04-01T02:16:56.322Z,74.67
2023-04-01T02:19:30.446Z,76.08
2023-04-01T02:22:03.367Z,76.39
2023-04-01T02:24:32.679Z,76.28
2023-04-01T02:26:59.936Z,76.58
2023-04-01T02:29:26.955Z,75.29
2023-04-01T02:31:55.929Z,75.83
2023-04-01T02:34:25.778Z,75.33
2023-04-01T02:36:54.274Z,74.87
2023-04-01T02:39:21.744Z,76.27
2023-04-01T02:41:48.238Z,75.49
2023-04-01T02:44:16.468Z,75.13
2023-04-01T02:46:42.969Z,75.60
2023-04-01T02:49:09.870Z,76.30
2023-04-01T02:51:36.335Z,76.07
2023-04-01T02:54:02.876Z,77.79
2023-04-01T02:56:29.560Z,78.00
2023-04-01T02:58:56.370Z,77.23
2023-04-01T03:01:23.727Z,77.80
2023-04-01T03:03:50.415Z,78.72
2023-04-01T03:06:18.297Z,78.36
2023-04-01T03:08:46.057Z,80.70
2023-04-01T03:11:13.043Z,82.20
2023-04-01T03:13:39.892Z,82.25
2023-04-01T03:16:06.575Z,83.00
2023-04-01T03:18:33.177Z,84.46
2023-04-01T03:21:15.777Z,85.45
2023-04-01T03:23:42.722Z,84.64
2023-04-01T03:26:09.299Z,86.47
2023-04-01T03:28:36.297Z,85.79
2023-04-01T03:31:03.116Z,83.40
2023-04-01T03:33:29.826Z,82.13
2023-04-01T03:35:56.431Z,84.91
2023-04-01T03:38:23.309Z,85.00
2023-04-01T03:40:50.746Z,83.58
2023-04-01T03:43:17.906Z,82.00
2023-04-01T03:45:46.638Z,82.61
2023-04-01T03:48:14.749Z,82.71
2023-04-01T03:50:41.409Z,85.71
2023-04-01T03:53:08.825Z,85.54
2023-04-01T03:55:37.594Z,81.20
2023-04-01T03:58:05.092Z,79.36
2023-04-01T04:00:31.780Z,82.54
2023-04-01T04:02:59.064Z,79.51
2023-04-01T04:05:26.609Z,78.97
2023-04-01T04:07:54.279Z,79.26
2023-04-01T04:10:21.055Z,80.86
2023-04-01T04:12:50.509Z,79.60
2023-04-01T04:15:18.530Z,78.62
2023-04-01T04:17:46.359Z,80.03
2023-04-01T04:20:13.705Z,78.81
2023-04-01T04:22:41.027Z,77.72
2023-04-01T04:25:08.293Z,77.74
2023-04-01T04:27:36.107Z,78.67
2023-04-01T04:30:03.793Z,78.14
2023-04-01T04:32:31.293Z,77.79
2023-04-01T04:34:58.520Z,78.64
2023-04-01T04:37:26.814Z,78.78
2023-04-01T04:39:53.214Z,78.01
2023-04-01T04:42:21.175Z,77.72
2023-04-01T04:44:47.958Z,78.31
2023-04-01T04:47:14.788Z,77.09
2023-04-01T04:49:41.208Z,78.68
2023-04-01T04:52:08.113Z,77.92
2023-04-01T04:54:34.588Z,78.90
2023-04-01T04:57:05.925Z,78.79
2023-04-01T04:59:32.499Z,78.16
2023-04-01T05:02:00.537Z,78.68
2023-04-01T05:04:26.891Z,78.37
2023-04-01T05:06:53.972Z,78.05
2023-04-01T05:09:22.582Z,79.24
2023-04-01T05:11:49.248Z,79.58
2023-04-01T05:14:17.175Z,79.55
2023-04-01T05:16:43.740Z,79.04
2023-04-01T05:19:10.173Z,80.04
2023-04-01T05:21:36.889Z,78.92
2023-04-01T05:24:03.757Z,79.15
2023-04-01T05:26:30.424Z,79.67
2023-04-01T05:28:56.909Z,79.13
2023-04-01T05:31:25.111Z,79.25
2023-04-01T05:33:51.969Z,80.65
2023-04-01T05:36:18.708Z,79.14
2023-04-01T05:38:47.006Z,80.39
2023-04-01T05:41:14.806Z,79.90
2023-04-01T05:43:42.435Z,78.78
2023-04-01T05:46:09.389Z,79.39
2023-04-01T05:48:36.758Z,78.95
2023-04-01T05:51:04.198Z,79.64
2023-04-01T05:53:31.030Z,78.97
2023-04-01T05:55:58.071Z,77.64
2023-04-01T05:58:24.581Z,78.29
2023-04-01T06:01:02.325Z,78.58
2023-04-01T06:03:36.024Z,79.53
2023-04-01T06:06:03.848Z,80.41
2023-04-01T06:08:32.567Z,80.02
2023-04-01T06:11:01.887Z,78.42
2023-04-01T06:14:06.189Z,79.73
2023-04-01T06:16:57.765Z,81.24
2023-04-01T06:19:36.071Z,83.71
2023-04-01T06:22:17.278Z,83.17
2023-04-01T06:25:04.851Z,82.43
2023-04-01T06:27:55.296Z,81.37
2023-04-01T06:30:39.091Z,81.39
2023-04-01T06:33:24.213Z,83.43
2023-04-01T06:36:02.417Z,84.53
2023-04-01T06:39:19.668Z,81.92
2023-04-01T06:42:10.245Z,80.18
2023-04-01T06:44:56.341Z,81.84
2023-04-01T06:47:45.440Z,81.56
2023-04-01T06:50:31.844Z,79.11
2023-04-01T06:53:04.557Z,82.65
2023-04-01T06:55:39.830Z,82.65
2023-04-01T06:58:14.688Z,79.88
2023-04-01T07:00:45.453Z,80.21
2023-04-01T07:03:31.295Z,80.07
2023-04-01T07:06:02.395Z,79.94
2023-04-01T07:08:30.827Z,80.48
2023-04-01T07:11:07.402Z,80.46
2023-04-01T07:13:41.983Z,79.20
2023-04-01T07:16:18.055Z,80.27
2023-04-01T07:19:02.032Z,80.46
2023-04-01T07:21:43.720Z,78.32
2023-04-01T07:24:18.385Z,76.59
2023-04-01T07:26:45.673Z,77.65
2023-04-01T07:29:14.545Z,77.32
2023-04-01T07:31:49.877Z,76.96
2023-04-01T07:34:38.543Z,77.08
2023-04-01T07:37:16.121Z,77.97
2023-04-01T07:40:06.708Z,79.10
2023-04-01T07:42:51.587Z,81.08
2023-04-01T07:45:31.670Z,80.83
2023-04-01T07:48:16.702Z,82.09
2023-04-01T07:51:02.117Z,81.83
2023-04-01T07:53:37.588Z,82.24
2023-04-01T07:56:11.707Z,82.87
2023-04-01T07:59:02.512Z,83.20
2023-04-01T08:01:46.269Z,86.09
2023-04-01T08:04:43.038Z,88.04
2023-04-01T08:07:18.002Z,86.84
2023-04-01T08:09:54.783Z,88.76
2023-04-01T08:12:39.348Z,87.74
2023-04-01T08:15:17.946Z,86.31
2023-04-01T08:17:55.162Z,86.30
2023-04-01T08:20:44.123Z,87.38
2023-04-01T08:23:15.427Z,88.36
2023-04-01T08:25:53.565Z,88.48
2023-04-01T08:28:43.522Z,87.58
2023-04-01T08:31:26.468Z,87.58
2023-04-01T08:33:56.089Z,84.28
2023-04-01T08:36:31.267Z,84.37
2023-04-01T08:39:14.479Z,84.52
2023-04-01T08:42:03.419Z,83.28
2023-04-01T08:44:42.190Z,84.05
2023-04-01T08:47:24.212Z,81.62
2023-04-01T08:50:07.139Z,82.22
2023-04-01T08:52:38.393Z,81.66
2023-04-01T08:55:29.876Z,81.36
2023-04-01T08:58:33.271Z,81.36
2023-04-01T09:01:33.548Z,79.91
2023-04-01T09:04:45.241Z,81.55
2023-04-01T09:07:44.467Z,81.71
2023-04-01T09:10:36.341Z,80.88
2023-04-01T09:13:40.727Z,79.69
2023-04-01T09:16:20.676Z,79.92
2023-04-01T09:18:49.813Z,79.01
2023-04-01T09:21:32.250Z,78.38
2023-04-01T09:24:26.756Z,75.75
2023-04-01T09:26:59.602Z,77.34
2023-04-01T09:29:45.199Z,77.83
2023-04-01T09:32:36.690Z,77.06
2023-04-01T09:35:37.167Z,76.72
2023-04-01T09:38:09.586Z,76.05
2023-04-01T09:41:24.945Z,75.99
2023-04-01T09:44:24.305Z,76.65
2023-04-01T09:47:28.394Z,74.99
2023-04-01T09:50:07.688Z,75.02
2023-04-01T09:52:51.580Z,75.73
2023-04-01T09:55:40.485Z,76.05
2023-04-01T09:58:35.020Z,75.02
2023-04-01T10:01:43.851Z,75.45
2023-04-01T10:04:48.503Z,76.40
2023-04-01T10:07:36.472Z,75.58
2023-04-01T10:10:33.641Z,75.19
2023-04-01T10:13:17.482Z,76.43
2023-04-01T10:16:04.239Z,76.83
2023-04-01T10:18:45.857Z,77.46
2023-04-01T10:21:24.380Z,77.21
2023-04-01T10:24:17.070Z,78.36
2023-04-01T10:27:28.582Z,78.87
2023-04-01T10:30:19.914Z,77.44
2023-04-01T10:33:19.892Z,77.22
2023-04-01T10:36:07.814Z,77.35
2023-04-01T10:39:06.844Z,76.24
2023-04-01T10:42:11.112Z,78.25
2023-04-01T10:45:07.245Z,77.80
2023-04-01T10:47:50.874Z,76.58
2023-04-01T10:50:32.620Z,76.21
2023-04-01T10:53:26.674Z,76.43
2023-04-01T10:56:33.136Z,75.08
2023-04-01T10:59:05.693Z,75.67
2023-04-01T11:02:10.101Z,75.40
2023-04-01T11:04:44.291Z,74.31
2023-04-01T11:07:37.846Z,76.31
2023-04-01T11:10:41.683Z,75.60
2023-04-01T11:13:33.253Z,76.66
2023-04-01T11:16:18.608Z,76.26
2023-04-01T11:19:10.831Z,75.46
2023-04-01T11:21:58.667Z,76.12
2023-04-01T11:24:43.663Z,76.57
2023-04-01T11:27:26.334Z,76.78
2023-04-01T11:30:09.969Z,76.27
2023-04-01T11:33:03.326Z,76.13
2023-04-01T11:35:53.423Z,76.33
2023-04-01T11:38:40.769Z,76.19
2023-04-01T11:41:31.189Z,75.61
2023-04-01T11:44:17.813Z,76.93
2023-04-01T11:47:22.021Z,75.67
2023-04-01T11:50:01.815Z,74.51
2023-04-01T11:52:48.158Z,77.07
2023-04-01T11:55:46.512Z,75.63
2023-04-01T11:58:37.708Z,77.83
2023-04-01T12:01:28.085Z,75.31
2023-04-01T12:04:34.858Z,77.19
2023-04-01T12:09:58.244Z,75.58
2023-04-01T12:12:26.872Z,75.38
2023-04-01T12:15:31.272Z,74.85
2023-04-01T12:18:20.570Z,74.11
2023-04-01T12:21:00.292Z,74.95
2023-04-01T12:23:53.372Z,73.94
2023-04-01T12:26:44.277Z,73.22
2023-04-01T12:29:35.567Z,75.40
2023-04-01T12:32:17.224Z,75.23
2023-04-01T12:35:03.398Z,75.46
2023-04-01T12:37:32.886Z,74.29
2023-04-01T12:40:08.498Z,75.36
2023-04-01T12:43:17.660Z,75.75
2023-04-01T12:46:04.389Z,80.08
2023-04-01T12:49:26.287Z,77.32
2023-04-01T12:52:05.682Z,78.28
2023-04-01T12:55:19.307Z,79.45
2023-04-01T12:58:06.194Z,81.09
2023-04-01T13:00:50.523Z,80.86
2023-04-01T13:03:44.361Z,81.26
2023-04-01T13:06:28.963Z,79.59
2023-04-01T13:09:52.824Z,81.67
2023-04-01T13:12:35.406Z,82.98
2023-04-01T13:15:21.447Z,82.66
2023-04-01T13:18:08.449Z,85.78
2023-04-01T13:20:39.241Z,86.29
2023-04-01T13:23:25.089Z,85.61
2023-04-01T13:26:14.478Z,85.71
2023-04-01T13:29:07.037Z,85.76
2023-04-01T13:31:52.876Z,85.66
2023-04-01T13:35:06.644Z,85.12
2023-04-01T13:38:00.051Z,86.40
2023-04-01T13:41:02.080Z,85.43
2023-04-01T13:43:39.079Z,85.13
2023-04-01T13:46:27.197Z,84.94
2023-04-01T13:49:36.284Z,83.72
2023-04-01T13:52:28.720Z,81.48
2023-04-01T13:55:01.476Z,81.45
2023-04-01T13:57:45.606Z,81.24
2023-04-01T14:00:41.027Z,80.34
2023-04-01T14:03:29.676Z,80.62
2023-04-01T14:06:02.195Z,81.13
2023-04-01T14:08:50.608Z,81.44
2023-04-01T14:11:56.494Z,80.97
2023-04-01T14:14:57.388Z,80.92
2023-04-01T14:17:47.206Z,81.76
2023-04-01T14:20:26.653Z,82.70
2023-04-01T14:23:19.196Z,84.19
2023-04-01T14:25:57.988Z,80.95
2023-04-01T14:28:33.566Z,80.79
2023-04-01T14:31:21.756Z,78.88
2023-04-01T14:33:51.302Z,75.98
2023-04-01T14:36:34.353Z,80.06
2023-04-01T14:39:27.263Z,76.28
2023-04-01T14:42:28.058Z,76.57
2023-04-01T14:45:21.581Z,75.20
2023-04-01T14:47:52.775Z,74.57
2023-04-01T14:50:23.906Z,75.53
2023-04-01T14:52:53.276Z,75.78
2023-04-01T14:55:37.324Z,74.88
2023-04-01T14:58:16.401Z,76.43
2023-04-01T15:01:01.992Z,76.44
2023-04-01T15:03:49.694Z,77.59
2023-04-01T15:06:25.615Z,77.72
2023-04-01T15:09:08.928Z,77.00
2023-04-01T15:12:17.557Z,78.90
2023-04-01T15:15:32.170Z,75.35
2023-04-01T15:18:36.794Z,75.75
2023-04-01T15:21:23.582Z,75.32
2023-04-01T15:24:08.948Z,75.27
2023-04-01T15:27:14.037Z,77.81
2023-04-01T15:30:05.888Z,77.21
2023-04-01T15:33:01.203Z,79.64
2023-04-01T15:35:44.940Z,79.31
2023-04-01T15:38:23.104Z,80.19
2023-04-01T15:41:12.935Z,80.76
2023-04-01T15:43:47.799Z,82.01
2023-04-01T15:46:42.499Z,81.24
2023-04-01T15:49:35.336Z,80.96
2023-04-01T15:52:13.371Z,81.23
2023-04-01T15:55:09.907Z,79.82
2023-04-01T15:57:52.505Z,79.80
2023-04-01T16:00:47.974Z,79.88
2023-04-01T16:03:33.881Z,80.01
2023-04-01T16:06:21.930Z,80.77
2023-04-01T16:09:01.554Z,81.73
2023-04-01T16:11:39.842Z,83.73
2023-04-01T16:14:21.706Z,83.13
2023-04-01T16:17:01.760Z,84.06
2023-04-01T16:19:51.897Z,85.40
2023-04-01T16:22:33.488Z,85.75
2023-04-01T16:28:04.106Z,87.23
2023-04-01T16:30:39.410Z,87.73
2023-04-01T16:33:16.044Z,86.69
2023-04-01T16:35:50.256Z,87.56
2023-04-01T16:38:25.082Z,86.37
2023-04-01T16:41:24.885Z,87.20
2023-04-01T16:43:56.481Z,85.38
2023-04-01T16:46:41.477Z,85.05
2023-04-01T16:49:13.805Z,85.29
2023-04-01T16:52:09.281Z,84.81
2023-04-01T16:54:59.188Z,84.17
2023-04-01T16:57:31.742Z,83.67
2023-04-01T17:00:24.402Z,84.11
2023-04-01T17:02:56.693Z,85.04
2023-04-01T17:05:40.682Z,84.51
2023-04-01T17:08:23.645Z,84.04
2023-04-01T17:10:53.940Z,84.68
2023-04-01T17:13:58.698Z,85.91
2023-04-01T17:16:41.631Z,84.50
2023-04-01T17:19:56.156Z,83.62
2023-04-01T17:22:29.513Z,85.26
2023-04-01T17:25:18.354Z,85.04
2023-04-01T17:27:57.074Z,84.98
2023-04-01T17:30:32.365Z,85.18
2023-04-01T17:33:14.342Z,85.70
2023-04-01T17:36:13.230Z,84.60
2023-04-01T17:39:10.737Z,85.68
2023-04-01T17:42:00.364Z,85.44
2023-04-01T17:44:41.482Z,85.29
2023-04-01T17:47:19.986Z,86.07
2023-04-01T17:49:58.626Z,86.97
2023-04-01T17:52:45.442Z,86.82
2023-04-01T17:55:33.721Z,85.96
2023-04-01T17:58:21.197Z,87.19
2023-04-01T18:01:07.600Z,87.01
2023-04-01T18:04:07.812Z,87.43
2023-04-01T18:06:40.415Z,87.39
2023-04-01T18:09:41.125Z,87.13
2023-04-01T18:12:29.158Z,87.03
2023-04-01T18:15:22.469Z,87.30
2023-04-01T18:18:10.358Z,87.02
2023-04-01T18:21:07.422Z,86.87
2023-04-01T18:23:55.668Z,87.84
2023-04-01T18:26:32.458Z,87.20
2023-04-01T18:29:12.085Z,86.98
2023-04-01T18:31:45.087Z,86.95
2023-04-01T18:34:20.949Z,86.86
2023-04-01T18:36:56.711Z,86.84
2023-04-01T18:39:47.968Z,87.22
2023-04-01T18:42:47.744Z,86.94
2023-04-01T18:45:28.384Z,87.33
2023-04-01T18:48:32.603Z,87.98
2023-04-01T18:51:04.482Z,88.20
2023-04-01T18:54:07.462Z,87.33
2023-04-01T18:56:34.021Z,87.51
2023-04-01T18:59:37.195Z,86.57
2023-04-01T19:02:30.406Z,86.13
2023-04-01T19:05:13.381Z,86.62
2023-04-01T19:07:53.645Z,86.84
2023-04-01T19:10:42.899Z,87.74
2023-04-01T19:13:23.929Z,86.90
2023-04-01T19:16:12.880Z,87.86
2023-04-01T19:18:59.130Z,86.74
2023-04-01T19:21:47.683Z,87.45
2023-04-01T19:24:39.608Z,87.18
2023-04-01T19:27:09.194Z,88.08
2023-04-01T19:30:13.719Z,86.48
2023-04-01T19:33:03.599Z,88.32
2023-04-01T19:35:43.146Z,87.55
2023-04-01T19:38:53.316Z,87.76
2023-04-01T19:41:30.872Z,86.67
2023-04-01T19:44:34.894Z,87.62
2023-04-01T19:47:16.360Z,85.27
2023-04-01T19:49:58.287Z,87.01
2023-04-01T19:52:33.022Z,87.35
2023-04-01T19:55:14.171Z,86.46
2023-04-01T19:58:09.503Z,86.84
2023-04-01T20:00:44.127Z,86.61
2023-04-01T20:03:37.613Z,87.23
2023-04-01T20:06:23.731Z,86.38
2023-04-01T20:09:26.065Z,86.48
2023-04-01T20:12:27.095Z,85.21
2023-04-01T20:14:58.018Z,86.56
2023-04-01T20:17:32.137Z,86.99
2023-04-01T20:20:02.217Z,88.00
2023-04-01T20:22:46.714Z,87.63
2023-04-01T20:25:47.055Z,86.45
2023-04-01T20:28:20.251Z,85.21
2023-04-01T20:31:26.077Z,85.70
2023-04-01T20:34:01.479Z,86.01
2023-04-01T20:36:42.938Z,85.41
2023-04-01T20:39:47.237Z,86.47
2023-04-01T20:42:28.480Z,85.31
2023-04-01T20:45:21.670Z,86.95
2023-04-01T20:47:51.099Z,85.29
2023-04-01T20:50:49.468Z,84.48
2023-04-01T20:53:28.361Z,85.36
2023-04-01T20:56:18.563Z,86.38
2023-04-01T20:58:58.678Z,86.39
2023-04-01T21:01:56.251Z,86.99
2023-04-01T21:04:25.639Z,85.98
2023-04-01T21:07:04.960Z,85.86
2023-04-01T21:09:47.238Z,85.02
2023-04-01T21:12:40.011Z,85.15
2023-04-01T21:15:51.814Z,86.27
2023-04-01T21:18:39.668Z,88.53
2023-04-01T21:21:27.782Z,89.43
2023-04-01T21:24:35.636Z,87.21
2023-04-01T21:27:25.771Z,87.61
2023-04-01T21:30:23.393Z,87.96
2023-04-01T21:33:12.006Z,87.46
2023-04-01T21:36:08.658Z,89.44
2023-04-01T21:38:35.845Z,88.29
2023-04-01T21:41:17.617Z,86.54
2023-04-01T21:44:00.159Z,87.63
2023-04-01T21:46:56.507Z,88.23
2023-04-01T21:49:30.638Z,89.10
2023-04-01T21:52:39.158Z,90.15
2023-04-01T21:55:34.065Z,89.90
2023-04-01T21:58:41.800Z,89.67
2023-04-01T22:01:21.415Z,89.65
2023-04-01T22:04:22.470Z,90.92
2023-04-01T22:06:56.303Z,91.54
2023-04-01T22:09:42.137Z,91.51
2023-04-01T22:12:25.613Z,91.79
2023-04-01T22:14:57.594Z,92.52
2023-04-01T22:17:45.726Z,92.24
2023-04-01T22:20:29.118Z,92.16
2023-04-01T22:22:58.502Z,91.86
2023-04-01T22:25:46.483Z,93.09
2023-04-01T22:28:17.569Z,93.24
2023-04-01T22:30:51.835Z,94.33
2023-04-01T22:33:29.086Z,94.35
2023-04-01T22:36:29.309Z,93.20
2023-04-01T22:39:11.108Z,94.21
2023-04-01T22:42:05.837Z,95.05
2023-04-01T22:44:54.121Z,94.49
2023-04-01T22:47:57.806Z,94.05
2023-04-01T22:50:43.209Z,94.74
2023-04-01T22:53:23.793Z,95.01
2023-04-01T22:55:54.136Z,94.94
2023-04-01T22:58:33.783Z,94.25
2023-04-01T23:01:06.156Z,95.01
2023-04-01T23:03:37.107Z,95.33
2023-04-01T23:06:05.702Z,95.51
2023-04-01T23:09:02.175Z,94.82
2023-04-01T23:11:42.742Z,94.93
2023-04-01T23:14:24.486Z,95.56
2023-04-01T23:17:20.085Z,95.37
2023-04-01T23:19:58.520Z,94.29
2023-04-01T23:22:27.874Z,94.25
2023-04-01T23:25:05.142Z,94.38
2023-04-01T23:27:38.396Z,94.83
2023-04-01T23:30:25.739Z,94.47
2023-04-01T23:32:53.285Z,95.09
2023-04-01T23:35:19.811Z,95.05
2023-04-01T23:37:46.669Z,94.47
2023-04-01T23:40:14.681Z,94.95
2023-04-01T23:42:42.672Z,95.35
2023-04-01T23:45:21.360Z,94.83
2023-04-01T23:47:50.458Z,95.66
2023-04-01T23:50:20.761Z,95.96
2023-04-01T23:52:49.452Z,95.10
2023-04-01T23:55:27.210Z,95.28
2023-04-01T23:58:06.531Z,95.52
